Aulander, North Carolina
Current Conditions -  °F | °C
As of 11:15 AM on Saturday 20 Dec 2014 (Local Time) from KASJ Reporting Station
Scattered Clouds Scattered Clouds  
Wind Chill: 32°   Ceiling: Unl
Heat Index: 36°   Visibility: 10mi
Dew Point: 28°   Wind: 5mph
Humidity: 74%   Direction: 10°N
Pressure: 30.31"   Gusts: NA
Location:  36.23°N, 77.11°W
Report Text: KASJ 201615Z AUTO 01004KT 10SM SCT070 SCT095 02/M02 A3031 RMK AO2 T00211021
Loading
Personal Weather Stations






























Interactive Weather Map New forecast layout! Learn more

10-Day Weather Forecast

Advertisements
Track Severe Weather on mobile